| Date | Time | Temp. (oF) | Dew Point (oF) | Rel. Hum. (%) | Press. (in.) | Wind Dir. (deg.) | Wind Speed (mph) | Hourly Rainfall (i n.) |
|
|---|---|---|---|---|---|---|---|---|---|
| 1 | 03/20 | 24:00 | 35 | 20 | 55 | 30.28 | 290 | 2 | 0.00 |
| 2 | 03/19 | 23:00 | 36 | 21 | 56 | 30.27 | 310 | 7 | 0.00 |
| 3 | 03/19 | 22:00 | 37 | 22 | 55 | 30.26 | 310 | 1 | 0.00 |
| 4 | 03/19 | 21:00 | 38 | 21 | 51 | 30.26 | 290 | 7 | 0.00 |
| 5 | 03/19 | 20:00 | 40 | 22 | 50 | 30.25 | 290 | 6 | 0.00 |
| 6 | 03/19 | 19:00 | 41 | 22 | 47 | 30.23 | 270 | 12 | 0.00 |
| 7 | 03/19 | 18:00 | 44 | 22 | 43 | 30.22 | 280 | 14 | 0.00 |
| 8 | 03/19 | 17:00 | 48 | 24 | 39 | 30.20 | 270 | 16 | 0.00 |
| 9 | 03/19 | 16:00 | 51 | 25 | 37 | 30.20 | 280 | 19 | 0.00 |
| 10 | 03/19 | 15:00 | 52 | 25 | 36 | 30.21 | 300 | 21 | 0.00 |
| 11 | 03/19 | 14:00 | 50 | 24 | 37 | 30.18 | 290 | 10 | 0.00 |
| 12 | 03/19 | 13:00 | 48 | 24 | 39 | 30.17 | 280 | 12 | 0.00 |
| 13 | 03/19 | 12:00 | 52 | 24 | 34 | 30.19 | 320 | 9 | 0.00 |
| 14 | 03/19 | 11:00 | 49 | 24 | 38 | 30.20 | 270 | 11 | 0.00 |
| 15 | 03/19 | 10:00 | 44 | 22 | 42 | 30.17 | 270 | 14 | 0.00 |
| 16 | 03/19 | 09:00 | 43 | 22 | 44 | 30.17 | 310 | 15 | 0.00 |
| 17 | 03/19 | 08:00 | 40 | 21 | 47 | 30.15 | 320 | 7 | 0.00 |
| 18 | 03/19 | 07:00 | 40 | 23 | 52 | 30.11 | 300 | 4 | 0.00 |
| 19 | 03/19 | 06:00 | 40 | 23 | 52 | 30.08 | 310 | 7 | 0.00 |
| 20 | 03/19 | 05:00 | 40 | 23 | 52 | 30.07 | 330 | 9 | 0.00 |
| 21 | 03/19 | 04:00 | 40 | 23 | 51 | 30.06 | 330 | 6 | 0.00 |
| 22 | 03/19 | 03:00 | 39 | 22 | 52 | 30.04 | 270 | 9 | 0.00 |
| 23 | 03/19 | 02:00 | 40 | 24 | 53 | 30.04 | 300 | 10 | 0.00 |
| 24 | 03/19 | 01:00 | 41 | 25 | 54 | 30.03 | 260 | 20 | 0.00 |